Time;durP1;ratioP1;P1;durP2;ratioP2;P2;SDS_P1;SDS_P2;PMS_P1;PMS_P2;Temp;Humidity;BMP_temperature;BMP_pressure;BME280_temperature;BME280_humidity;BME280_pressure;Samples;Min_cycle;Max_cycle;Signal;HPM_P1;HPM_P2
2021/06/16 00:00:42;;;;;;;9.48;5.15;;;23.50;51.60;;;;;;5013022;28;20460;-42
2021/06/16 00:03:07;;;;;;;12.63;5.53;;;23.60;51.70;;;;;;5013079;28;20026;-44
2021/06/16 00:05:33;;;;;;;9.05;5.60;;;23.60;51.60;;;;;;4996222;28;20026;-43
2021/06/16 00:07:59;;;;;;;7.43;4.75;;;23.50;51.60;;;;;;4995730;28;20480;-47
2021/06/16 00:10:31;;;;;;;8.30;5.30;;;23.50;51.80;;;;;;5013319;28;20079;-44
2021/06/16 00:12:58;;;;;;;10.35;5.50;;;23.50;51.70;;;;;;4996203;28;20087;-41
2021/06/16 00:15:32;;;;;;;10.52;5.60;;;23.60;51.60;;;;;;5012754;28;20029;-42
2021/06/16 00:17:58;;;;;;;13.85;5.65;;;23.50;51.50;;;;;;4995813;28;20025;-52
2021/06/16 00:20:24;;;;;;;11.55;6.00;;;23.50;51.30;;;;;;4994286;28;20045;-40
2021/06/16 00:22:50;;;;;;;9.40;5.80;;;23.60;51.10;;;;;;5012395;28;20030;-41
2021/06/16 00:25:16;;;;;;;11.50;6.05;;;23.60;50.80;;;;;;4994006;28;20030;-44
2021/06/16 00:27:42;;;;;;;9.52;5.18;;;23.60;51.00;;;;;;5012655;28;20032;-41
2021/06/16 00:30:09;;;;;;;10.50;5.10;;;23.60;50.80;;;;;;4995069;28;20242;-41
2021/06/16 00:32:36;;;;;;;15.63;5.50;;;23.60;50.80;;;;;;5012387;28;20030;-40
2021/06/16 00:35:03;;;;;;;11.50;5.28;;;23.60;50.90;;;;;;5012478;28;20033;-46
2021/06/16 00:37:29;;;;;;;9.30;5.30;;;23.60;50.80;;;;;;4995452;28;20124;-47
2021/06/16 00:39:56;;;;;;;8.05;5.15;;;23.60;50.60;;;;;;5013213;28;20038;-46
2021/06/16 00:42:23;;;;;;;12.15;5.80;;;23.50;51.10;;;;;;5011580;28;20026;-40
2021/06/16 00:44:49;;;;;;;11.32;6.03;;;23.50;51.50;;;;;;5012037;28;20045;-41
2021/06/16 00:47:15;;;;;;;10.00;4.88;;;23.40;51.70;;;;;;5011682;28;20024;-43
2021/06/16 00:52:25;;;;;;;9.02;5.13;;;23.30;51.90;;;;;;5012984;28;20041;-39
2021/06/16 00:54:51;;;;;;;11.90;5.03;;;23.20;52.10;;;;;;5011843;28;20465;-41
2021/06/16 00:57:17;;;;;;;10.10;4.78;;;23.20;52.30;;;;;;5012108;28;20092;-43
2021/06/16 00:59:56;;;;;;;7.88;4.70;;;23.10;52.50;;;;;;4994741;28;20128;-41
2021/06/16 01:02:24;;;;;;;7.03;4.85;;;23.10;52.70;;;;;;5012337;28;20030;-42
2021/06/16 01:04:52;;;;;;;11.27;4.90;;;23.00;53.00;;;;;;5011475;28;20050;-40
2021/06/16 01:07:22;;;;;;;8.73;4.93;;;22.90;52.90;;;;;;5011778;28;20025;-43
2021/06/16 01:09:58;;;;;;;12.38;5.32;;;22.90;53.70;;;;;;5011444;28;20026;-42
2021/06/16 01:12:37;;;;;;;6.88;4.63;;;22.80;53.30;;;;;;5011617;28;20054;-44
2021/06/16 01:15:11;;;;;;;9.90;5.00;;;22.90;53.10;;;;;;4993888;28;20030;-46
2021/06/16 01:17:46;;;;;;;7.63;4.57;;;22.90;53.20;;;;;;5011581;28;20022;-41
2021/06/16 01:20:21;;;;;;;9.35;4.70;;;22.80;53.40;;;;;;5012058;28;20034;-40
2021/06/16 01:22:58;;;;;;;8.18;4.88;;;22.80;53.30;;;;;;5012648;28;20491;-45
2021/06/16 01:25:34;;;;;;;8.07;5.07;;;22.80;53.80;;;;;;5011753;28;20117;-45
2021/06/16 01:28:00;;;;;;;8.35;4.85;;;22.80;53.00;;;;;;5012096;28;20078;-41
2021/06/16 01:30:29;;;;;;;9.15;4.57;;;22.90;52.80;;;;;;4994093;28;20044;-44
2021/06/16 01:32:56;;;;;;;10.23;4.95;;;22.90;52.80;;;;;;5012569;28;20049;-41
2021/06/16 01:35:25;;;;;;;7.82;5.20;;;22.90;52.80;;;;;;4994180;28;20490;-42
2021/06/16 01:37:51;;;;;;;7.97;5.18;;;22.80;53.00;;;;;;5011593;28;20034;-43
2021/06/16 01:40:19;;;;;;;6.72;4.70;;;22.80;52.90;;;;;;5010171;28;20038;-41
2021/06/16 01:42:46;;;;;;;8.65;4.85;;;22.90;52.80;;;;;;5012500;28;20100;-41
2021/06/16 01:45:14;;;;;;;7.43;4.47;;;22.90;52.60;;;;;;4993051;28;20496;-41
2021/06/16 01:47:42;;;;;;;7.60;4.50;;;22.90;52.80;;;;;;4994206;28;20037;-40
2021/06/16 01:50:09;;;;;;;8.32;4.65;;;22.80;53.00;;;;;;5010944;28;20477;-40
2021/06/16 01:52:36;;;;;;;11.88;4.38;;;22.70;53.30;;;;;;5011710;28;20113;-47
2021/06/16 01:55:02;;;;;;;8.13;4.80;;;22.70;53.40;;;;;;5011642;28;20025;-41
2021/06/16 01:57:29;;;;;;;7.53;4.20;;;22.60;53.60;;;;;;4977921;28;20034;-41
2021/06/16 01:59:59;;;;;;;10.15;4.60;;;22.50;53.80;;;;;;5011801;28;20038;-41
2021/06/16 02:02:25;;;;;;;8.18;4.47;;;22.50;54.00;;;;;;5011302;28;20029;-43
2021/06/16 02:04:51;;;;;;;6.70;4.55;;;22.50;54.10;;;;;;4994053;28;20030;-45
2021/06/16 02:07:24;;;;;;;10.40;5.10;;;22.50;54.10;;;;;;4994003;28;20033;-43
2021/06/16 02:09:51;;;;;;;10.07;4.90;;;22.40;54.20;;;;;;5011957;28;20022;-40
2021/06/16 02:12:19;;;;;;;6.70;4.30;;;22.40;54.30;;;;;;5011523;28;20034;-40
2021/06/16 02:15:03;;;;;;;7.78;4.65;;;22.40;54.20;;;;;;5011694;28;20109;-39
2021/06/16 02:17:30;;;;;;;10.70;4.65;;;22.40;54.00;;;;;;5011894;28;20036;-40
2021/06/16 02:19:56;;;;;;;7.00;3.92;;;22.50;53.80;;;;;;5011723;28;20041;-41
2021/06/16 02:22:28;;;;;;;7.78;4.47;;;22.40;53.60;;;;;;5010565;28;20049;-40
2021/06/16 02:24:55;;;;;;;9.70;4.45;;;22.50;53.60;;;;;;4994353;28;20054;-48
2021/06/16 02:27:21;;;;;;;7.13;4.22;;;22.50;53.60;;;;;;5011508;28;20057;-42
2021/06/16 02:29:47;;;;;;;10.98;4.25;;;22.50;53.50;;;;;;4993783;28;20034;-42
2021/06/16 02:32:13;;;;;;;9.07;4.90;;;22.50;53.60;;;;;;5010383;28;20026;-41
2021/06/16 02:34:39;;;;;;;7.65;4.25;;;22.50;53.60;;;;;;5011544;28;20469;-44
2021/06/16 02:37:10;;;;;;;8.13;4.43;;;22.40;53.50;;;;;;5011755;28;20029;-44
2021/06/16 02:39:42;;;;;;;10.13;4.53;;;22.40;53.60;;;;;;5011069;28;20021;-42
2021/06/16 02:42:10;;;;;;;11.13;5.05;;;22.40;53.90;;;;;;4992920;28;20046;-41
2021/06/16 02:44:41;;;;;;;8.48;4.38;;;22.30;54.00;;;;;;5011267;28;20115;-44
2021/06/16 02:47:08;;;;;;;7.63;4.10;;;22.30;54.10;;;;;;4992429;28;20022;-42
2021/06/16 02:49:41;;;;;;;5.57;4.07;;;22.30;54.10;;;;;;4992955;28;20026;-41
2021/06/16 02:52:09;;;;;;;6.57;3.78;;;22.20;54.30;;;;;;5014240;28;20101;-42
2021/06/16 02:54:36;;;;;;;7.28;4.40;;;22.20;54.50;;;;;;5014760;28;20109;-42
2021/06/16 02:57:04;;;;;;;6.50;4.40;;;22.20;54.40;;;;;;5014005;28;20471;-40
2021/06/16 02:59:31;;;;;;;10.10;4.50;;;22.20;54.30;;;;;;5013234;28;20033;-41
2021/06/16 03:01:57;;;;;;;8.15;4.53;;;22.20;54.30;;;;;;5014295;28;20607;-41
2021/06/16 03:04:24;;;;;;;8.60;4.50;;;22.20;54.20;;;;;;5014215;28;20058;-41
2021/06/16 03:06:53;;;;;;;8.23;4.70;;;22.20;54.20;;;;;;5013882;28;20480;-43
2021/06/16 03:09:20;;;;;;;9.93;4.68;;;22.20;54.20;;;;;;5012953;28;20036;-47
2021/06/16 03:11:47;;;;;;;10.25;4.78;;;22.20;54.30;;;;;;5014548;28;20409;-41
2021/06/16 03:14:13;;;;;;;8.48;4.55;;;22.20;54.60;;;;;;5012995;28;20030;-42
2021/06/16 03:16:42;;;;;;;8.55;5.10;;;22.10;54.70;;;;;;5014566;28;20112;-43
2021/06/16 03:19:08;;;;;;;8.70;4.65;;;22.10;55.10;;;;;;5013353;28;20025;-46
2021/06/16 03:21:35;;;;;;;8.55;4.32;;;22.00;55.50;;;;;;5014256;28;20034;-42
2021/06/16 03:24:01;;;;;;;7.43;4.70;;;21.90;55.60;;;;;;4980980;28;20030;-41
2021/06/16 03:26:28;;;;;;;7.97;4.80;;;22.00;55.40;;;;;;5013856;28;20472;-40
2021/06/16 03:28:55;;;;;;;6.97;4.45;;;22.00;55.40;;;;;;5014650;28;20486;-41
2021/06/16 03:31:21;;;;;;;13.52;4.95;;;22.00;55.00;;;;;;5013917;28;20125;-48
2021/06/16 03:33:48;;;;;;;7.03;4.57;;;22.10;55.10;;;;;;5014106;28;20026;-44
2021/06/16 03:36:16;;;;;;;8.85;4.72;;;22.00;55.20;;;;;;5012928;28;20026;-44
2021/06/16 03:38:43;;;;;;;8.30;4.85;;;22.00;55.40;;;;;;5014528;28;20025;-40
2021/06/16 03:41:13;;;;;;;7.22;4.35;;;22.00;55.50;;;;;;5012539;28;20095;-43
2021/06/16 03:43:41;;;;;;;11.93;5.50;;;22.00;55.50;;;;;;4997007;28;20053;-40
2021/06/16 03:46:09;;;;;;;9.88;4.80;;;22.00;55.40;;;;;;4996745;28;20054;-40
2021/06/16 03:48:36;;;;;;;8.30;5.10;;;22.10;55.40;;;;;;5014169;28;20063;-41
2021/06/16 03:51:04;;;;;;;9.80;4.97;;;22.20;55.10;;;;;;4996240;28;20378;-40
2021/06/16 03:53:30;;;;;;;11.15;4.90;;;22.30;54.80;;;;;;5013668;28;20084;-43
2021/06/16 03:55:57;;;;;;;8.93;4.88;;;22.40;54.50;;;;;;5013960;28;20026;-41
2021/06/16 03:58:23;;;;;;;10.45;5.10;;;22.50;54.40;;;;;;5013659;28;20416;-45
2021/06/16 04:00:50;;;;;;;11.20;5.13;;;22.60;54.10;;;;;;5014057;28;20049;-42
2021/06/16 04:03:16;;;;;;;8.40;4.82;;;22.70;53.90;;;;;;5013385;28;20045;-41
2021/06/16 04:05:42;;;;;;;9.70;4.80;;;22.70;53.80;;;;;;5014052;28;20453;-39
2021/06/16 04:08:11;;;;;;;11.48;5.30;;;22.80;53.60;;;;;;5012692;28;20030;-41
2021/06/16 04:10:37;;;;;;;13.68;5.50;;;22.80;53.40;;;;;;5013810;28;20037;-41
2021/06/16 04:13:05;;;;;;;9.65;5.70;;;22.90;53.20;;;;;;5012890;28;20034;-40
2021/06/16 04:15:31;;;;;;;12.70;5.40;;;23.00;53.00;;;;;;5013277;28;20026;-40
2021/06/16 04:18:00;;;;;;;11.30;5.55;;;23.10;53.00;;;;;;5013814;28;20026;-40
2021/06/16 04:20:27;;;;;;;10.10;5.57;;;23.20;52.70;;;;;;4995397;28;20044;-44
2021/06/16 04:22:54;;;;;;;10.00;5.60;;;23.20;52.50;;;;;;4995277;28;20557;-40
2021/06/16 04:25:22;;;;;;;12.35;5.05;;;23.30;52.50;;;;;;5014189;28;20075;-40
2021/06/16 04:27:48;;;;;;;9.32;4.93;;;23.30;52.30;;;;;;5014511;28;20037;-41
2021/06/16 04:30:15;;;;;;;10.95;5.68;;;23.40;52.20;;;;;;5012162;28;20029;-42
2021/06/16 04:32:41;;;;;;;13.23;5.07;;;23.50;52.10;;;;;;4995348;28;20026;-43
2021/06/16 04:35:08;;;;;;;13.98;6.07;;;23.60;51.80;;;;;;4995822;28;20030;-41
2021/06/16 04:37:35;;;;;;;14.93;5.78;;;23.80;51.30;;;;;;4994942;28;20054;-45
2021/06/16 04:40:19;;;;;;;15.85;6.13;;;23.90;51.00;;;;;;4995604;28;20022;-41
2021/06/16 04:42:45;;;;;;;9.52;5.75;;;24.10;50.60;;;;;;5013055;28;20076;-40
2021/06/16 04:45:13;;;;;;;11.75;5.47;;;24.30;50.10;;;;;;5012123;28;20122;-38
2021/06/16 04:47:39;;;;;;;9.68;5.60;;;24.50;49.60;;;;;;5012790;28;20037;-41
2021/06/16 04:50:07;;;;;;;11.20;5.65;;;24.70;49.10;;;;;;5012312;28;20536;-46
2021/06/16 04:52:33;;;;;;;16.73;5.65;;;24.90;48.60;;;;;;5011276;28;20018;-42
2021/06/16 04:54:59;;;;;;;15.25;5.25;;;25.00;48.30;;;;;;5011667;28;20084;-44
2021/06/16 04:57:25;;;;;;;10.85;5.90;;;25.10;48.80;;;;;;5011768;28;20465;-44
2021/06/16 04:59:50;;;;;;;11.50;6.30;;;25.10;48.00;;;;;;5012508;28;20034;-42
2021/06/16 05:02:16;;;;;;;9.60;5.70;;;25.20;47.90;;;;;;4986251;28;20523;-44
2021/06/16 05:04:42;;;;;;;13.02;5.97;;;25.40;47.60;;;;;;5011785;28;20033;-44
2021/06/16 05:07:07;;;;;;;16.88;6.15;;;25.50;46.50;;;;;;5011635;28;20029;-43
2021/06/16 05:09:33;;;;;;;40.65;8.35;;;25.70;45.70;;;;;;4987297;28;20137;-41
2021/06/16 05:11:59;;;;;;;32.92;6.97;;;25.80;44.30;;;;;;4989878;28;20030;-41
2021/06/16 05:14:25;;;;;;;34.75;7.38;;;25.70;44.50;;;;;;4990297;28;20030;-45
2021/06/16 05:16:53;;;;;;;33.70;6.85;;;25.80;44.80;;;;;;5010676;28;20053;-47
2021/06/16 05:19:21;;;;;;;30.40;6.65;;;26.00;44.20;;;;;;5009685;28;20026;-46
2021/06/16 05:21:48;;;;;;;21.98;5.53;;;26.00;44.40;;;;;;4992775;28;20494;-44
2021/06/16 05:24:14;;;;;;;28.70;6.70;;;26.10;44.30;;;;;;4992281;28;20121;-40
2021/06/16 05:26:41;;;;;;;26.15;6.47;;;26.00;44.70;;;;;;4993268;28;20029;-51
2021/06/16 05:29:08;;;;;;;20.92;5.97;;;26.10;45.00;;;;;;5012016;28;20034;-42
2021/06/16 05:31:35;;;;;;;22.83;6.05;;;26.10;45.00;;;;;;4999119;28;20437;-42
2021/06/16 05:34:00;;;;;;;19.00;5.78;;;26.10;45.00;;;;;;5005358;28;20021;-43
2021/06/16 05:36:26;;;;;;;19.35;5.55;;;26.10;45.00;;;;;;5011096;28;20476;-40
2021/06/16 05:38:53;;;;;;;44.97;7.32;;;26.20;44.80;;;;;;5011606;28;20026;-41
2021/06/16 05:41:18;;;;;;;19.10;5.78;;;26.10;45.20;;;;;;5006857;28;20205;-52
2021/06/16 05:43:44;;;;;;;27.58;6.03;;;25.90;45.20;;;;;;4991898;28;20503;-47
2021/06/16 05:46:11;;;;;;;12.73;5.25;;;25.70;45.60;;;;;;5010104;28;20105;-44
2021/06/16 05:48:37;;;;;;;15.07;5.32;;;25.70;45.10;;;;;;5012232;28;20025;-41
2021/06/16 05:51:03;;;;;;;16.15;5.15;;;25.60;44.70;;;;;;5011741;28;20076;-45
2021/06/16 05:53:28;;;;;;;12.73;5.40;;;25.40;45.00;;;;;;4993732;28;20029;-41
2021/06/16 05:55:54;;;;;;;19.08;5.93;;;25.40;45.40;;;;;;5011886;28;20045;-43
2021/06/16 05:58:20;;;;;;;66.97;8.52;;;25.20;45.80;;;;;;5010605;28;20026;-40
2021/06/16 06:00:46;;;;;;;32.92;7.63;;;25.10;46.30;;;;;;5011250;28;20037;-44
2021/06/16 06:03:11;;;;;;;48.53;8.77;;;25.10;46.20;;;;;;5011537;28;20034;-42
2021/06/16 06:05:37;;;;;;;32.33;7.97;;;25.20;46.10;;;;;;5010943;28;20056;-42
2021/06/16 06:08:03;;;;;;;18.58;6.03;;;25.20;46.20;;;;;;5011509;28;20381;-44
2021/06/16 06:10:29;;;;;;;15.98;6.03;;;25.20;46.20;;;;;;4993116;28;20496;-42
2021/06/16 06:12:56;;;;;;;20.67;6.65;;;25.30;46.10;;;;;;4993946;28;20022;-44
2021/06/16 06:15:22;;;;;;;13.95;5.80;;;25.30;46.00;;;;;;5010533;28;20037;-41
2021/06/16 06:17:48;;;;;;;16.38;6.07;;;25.30;46.00;;;;;;5011174;28;20156;-45
2021/06/16 06:20:14;;;;;;;19.70;5.65;;;25.30;45.90;;;;;;5011139;28;20499;-42
2021/06/16 06:22:40;;;;;;;23.92;7.35;;;25.40;45.80;;;;;;5010497;28;20033;-45
2021/06/16 06:25:06;;;;;;;15.27;6.05;;;25.50;45.50;;;;;;4994224;28;20160;-43
2021/06/16 06:27:32;;;;;;;30.98;7.35;;;25.50;45.40;;;;;;4996897;28;20056;-43
2021/06/16 06:29:58;;;;;;;18.13;5.57;;;25.50;45.00;;;;;;4996899;28;20030;-49
2021/06/16 06:32:24;;;;;;;12.20;5.70;;;25.50;44.20;;;;;;5013823;28;20145;-43
2021/06/16 06:34:50;;;;;;;15.82;5.22;;;25.50;45.00;;;;;;4996019;28;20376;-44
2021/06/16 06:37:16;;;;;;;17.52;5.47;;;25.60;44.90;;;;;;5013985;28;20030;-47
2021/06/16 06:39:42;;;;;;;13.82;6.40;;;25.70;44.80;;;;;;5013470;28;20080;-45
2021/06/16 06:42:07;;;;;;;22.88;5.97;;;25.80;44.10;;;;;;5014463;28;20042;-45
2021/06/16 06:44:33;;;;;;;39.45;7.38;;;25.80;43.70;;;;;;5013796;28;20485;-44
2021/06/16 06:46:59;;;;;;;27.10;6.15;;;25.90;43.90;;;;;;4997009;28;20481;-42
2021/06/16 06:49:25;;;;;;;23.70;6.75;;;26.20;43.90;;;;;;5013927;28;20397;-44
2021/06/16 06:51:52;;;;;;;17.35;6.40;;;27.10;43.80;;;;;;4996961;28;20034;-47
2021/06/16 06:54:17;;;;;;;28.35;6.13;;;31.00;39.00;;;;;;5014285;28;20026;-44
2021/06/16 06:56:43;;;;;;;25.38;5.72;;;35.20;33.30;;;;;;5013750;28;20515;-48
2021/06/16 06:59:09;;;;;;;17.27;6.00;;;38.30;29.50;;;;;;5012975;28;20361;-46
2021/06/16 07:01:34;;;;;;;10.80;5.50;;;40.40;27.00;;;;;;5013022;28;20030;-44
2021/06/16 07:04:04;;;;;;;11.82;5.65;;;42.00;26.00;;;;;;5014182;28;20441;-45
2021/06/16 07:06:30;;;;;;;14.27;5.75;;;43.70;24.70;;;;;;5013561;28;20030;-44
2021/06/16 07:08:57;;;;;;;12.60;5.65;;;45.40;24.00;;;;;;5014514;28;20105;-45
2021/06/16 07:11:23;;;;;;;12.18;5.95;;;46.80;23.00;;;;;;5013381;28;20033;-50
2021/06/16 07:13:48;;;;;;;13.57;5.45;;;47.70;22.30;;;;;;4996197;28;20033;-51
2021/06/16 07:16:14;;;;;;;16.83;5.68;;;48.40;21.90;;;;;;5013440;28;20097;-45
2021/06/16 07:18:40;;;;;;;19.35;6.13;;;49.20;21.60;;;;;;5013001;28;20210;-43
2021/06/16 07:21:06;;;;;;;26.42;7.43;;;49.70;20.90;;;;;;4995037;28;20084;-51
2021/06/16 07:23:32;;;;;;;21.30;6.88;;;49.80;20.80;;;;;;5013371;28;20483;-49
2021/06/16 07:25:58;;;;;;;11.70;5.30;;;50.00;20.50;;;;;;4995485;28;20030;-46
2021/06/16 07:28:24;;;;;;;12.45;5.90;;;50.90;20.40;;;;;;5012931;28;20026;-46
2021/06/16 07:30:51;;;;;;;25.25;7.10;;;51.60;20.10;;;;;;5012852;28;20029;-50
2021/06/16 07:33:17;;;;;;;16.65;4.90;;;52.00;20.00;;;;;;4995053;28;20116;-48
2021/06/16 07:35:44;;;;;;;8.63;5.20;;;52.10;19.80;;;;;;4994970;28;20041;-46
2021/06/16 07:38:11;;;;;;;9.35;5.90;;;52.60;19.80;;;;;;4995182;28;20120;-52
2021/06/16 07:40:37;;;;;;;16.73;6.05;;;52.80;19.20;;;;;;5013354;28;20030;-53
2021/06/16 07:43:21;;;;;;;11.57;5.45;;;53.10;19.20;;;;;;5013044;28;20105;-49
2021/06/16 07:45:47;;;;;;;22.90;6.65;;;53.90;19.00;;;;;;5013108;28;20465;-46
2021/06/16 07:48:13;;;;;;;37.08;7.70;;;54.70;19.00;;;;;;5012244;28;20037;-47
2021/06/16 07:50:39;;;;;;;12.05;5.72;;;55.00;19.00;;;;;;4995461;28;20439;-50
2021/06/16 07:53:08;;;;;;;15.18;6.65;;;54.10;18.60;;;;;;5013297;28;20029;-47
2021/06/16 07:55:34;;;;;;;12.35;5.63;;;53.20;18.80;;;;;;5013412;28;20029;-46
2021/06/16 07:58:02;;;;;;;10.27;5.63;;;53.80;18.70;;;;;;5013286;28;20376;-46
2021/06/16 08:00:28;;;;;;;9.63;5.85;;;54.40;18.60;;;;;;4995228;28;20529;-46
2021/06/16 08:02:53;;;;;;;7.55;5.50;;;54.40;18.50;;;;;;5012886;28;20022;-43
2021/06/16 08:05:19;;;;;;;15.80;6.63;;;54.20;18.30;;;;;;5012977;28;20037;-49
2021/06/16 08:07:45;;;;;;;13.13;5.38;;;54.00;18.50;;;;;;4995870;28;20596;-45
2021/06/16 08:10:12;;;;;;;22.83;6.57;;;53.20;18.20;;;;;;4995360;28;20113;-48
2021/06/16 08:12:38;;;;;;;13.45;5.78;;;52.00;18.70;;;;;;5013244;28;20180;-49
2021/06/16 08:15:06;;;;;;;11.55;5.70;;;51.80;18.70;;;;;;5013907;28;20530;-44
2021/06/16 08:17:33;;;;;;;16.80;6.43;;;52.80;18.90;;;;;;5012416;28;20085;-46
2021/06/16 08:19:58;;;;;;;14.48;5.90;;;53.10;18.80;;;;;;4995392;28;20040;-47
2021/06/16 08:22:24;;;;;;;10.40;6.45;;;53.60;18.90;;;;;;5002563;28;20022;-55
2021/06/16 08:24:50;;;;;;;11.82;6.30;;;54.30;18.40;;;;;;4994425;28;20109;-41
2021/06/16 08:27:16;;;;;;;32.28;7.68;;;54.00;18.30;;;;;;4993603;28;20030;-46
2021/06/16 08:29:42;;;;;;;16.90;7.20;;;54.30;18.40;;;;;;5011336;28;20179;-45
2021/06/16 08:32:08;;;;;;;14.05;7.55;;;54.90;18.30;;;;;;5009716;28;20400;-46
2021/06/16 08:34:36;;;;;;;11.95;6.88;;;55.50;18.10;;;;;;5011648;28;20028;-47
2021/06/16 08:37:05;;;;;;;9.45;7.00;;;55.80;17.90;;;;;;4994695;28;20531;-47
2021/06/16 08:39:31;;;;;;;17.50;8.35;;;56.30;17.90;;;;;;5012210;28;20073;-52
2021/06/16 08:41:57;;;;;;;13.77;6.55;;;56.50;17.60;;;;;;5012119;28;20096;-46
2021/06/16 08:44:23;;;;;;;11.57;7.40;;;56.10;17.80;;;;;;5009061;28;20088;-46
2021/06/16 08:46:51;;;;;;;24.65;8.35;;;56.50;17.80;;;;;;5012512;28;20042;-46
2021/06/16 08:49:16;;;;;;;12.20;7.55;;;57.00;17.70;;;;;;5011293;28;20033;-49
2021/06/16 08:51:42;;;;;;;11.75;7.80;;;57.20;17.50;;;;;;5011580;28;20030;-48
2021/06/16 08:54:48;;;;;;;19.23;7.32;;;56.70;17.50;;;;;;5012601;28;20372;-46
2021/06/16 08:57:14;;;;;;;15.07;6.93;;;56.50;17.70;;;;;;4994106;28;20022;-54
2021/06/16 08:59:40;;;;;;;14.95;7.78;;;56.60;17.70;;;;;;5009303;28;20037;-44
2021/06/16 09:02:06;;;;;;;21.88;9.02;;;56.60;17.80;;;;;;5011543;28;20388;-45
2021/06/16 09:04:46;;;;;;;22.17;7.25;;;56.20;17.70;;;;;;5010933;28;20336;-48
2021/06/16 09:07:27;;;;;;;13.18;6.30;;;55.00;18.00;;;;;;5010611;28;20105;-52
2021/06/16 09:10:14;;;;;;;10.45;6.20;;;54.30;18.10;;;;;;4994039;28;20117;-48
2021/06/16 09:12:59;;;;;;;10.45;5.88;;;54.30;18.00;;;;;;5011558;28;20030;-46
2021/06/16 09:15:30;;;;;;;10.95;5.57;;;54.30;18.00;;;;;;5010746;28;20030;-51
2021/06/16 09:18:00;;;;;;;11.90;6.18;;;53.60;17.80;;;;;;4991485;28;20084;-48
2021/06/16 09:20:27;;;;;;;9.65;4.40;;;52.70;18.00;;;;;;4992954;28;20040;-50
2021/06/16 09:23:10;;;;;;;17.85;5.75;;;51.50;18.00;;;;;;4992681;28;20029;-54
2021/06/16 09:25:36;;;;;;;9.65;5.43;;;47.90;18.90;;;;;;4992964;28;20022;-47
2021/06/16 09:28:03;;;;;;;19.00;5.45;;;45.00;19.70;;;;;;4994174;28;20087;-45
2021/06/16 09:30:31;;;;;;;12.45;5.43;;;43.00;21.30;;;;;;4993068;28;20048;-49
2021/06/16 09:33:04;;;;;;;15.68;5.05;;;41.60;21.60;;;;;;5010973;28;20026;-51
2021/06/16 09:35:33;;;;;;;11.07;4.85;;;40.00;22.60;;;;;;5010650;28;20133;-47
2021/06/16 09:38:01;;;;;;;12.02;4.43;;;38.60;23.30;;;;;;5010796;28;20032;-45
2021/06/16 09:40:30;;;;;;;13.43;4.85;;;37.70;24.10;;;;;;5008211;28;20037;-49
2021/06/16 09:42:58;;;;;;;18.33;5.10;;;36.90;24.60;;;;;;5009797;28;20030;-48
2021/06/16 09:45:23;;;;;;;12.25;5.35;;;36.30;25.30;;;;;;4991344;28;20050;-43
2021/06/16 09:47:49;;;;;;;14.27;4.63;;;35.80;25.60;;;;;;4991745;28;20030;-53
2021/06/16 09:50:24;;;;;;;16.42;5.68;;;35.50;26.20;;;;;;4992543;28;20037;-53
2021/06/16 09:52:51;;;;;;;10.20;4.50;;;35.00;26.60;;;;;;5010617;28;20033;-49
2021/06/16 09:55:29;;;;;;;19.40;5.28;;;34.50;26.70;;;;;;4992741;28;20473;-56
2021/06/16 10:00:52;;;;;;;12.30;4.05;;;33.50;27.80;;;;;;5011625;28;20041;-51
2021/06/16 10:03:21;;;;;;;16.88;4.40;;;33.20;27.70;;;;;;4996115;28;20040;-56
2021/06/16 10:06:23;;;;;;;16.85;4.43;;;32.80;27.70;;;;;;5012065;28;20028;-51
2021/06/16 10:08:51;;;;;;;16.65;5.68;;;32.70;28.10;;;;;;4971309;28;20033;-50
2021/06/16 10:11:28;;;;;;;10.88;4.63;;;32.70;28.10;;;;;;4993210;28;20095;-51
2021/06/16 10:13:55;;;;;;;14.43;5.15;;;32.60;28.30;;;;;;5008428;28;20052;-48
2021/06/16 10:16:21;;;;;;;14.43;4.60;;;32.40;28.50;;;;;;5011638;28;20126;-45
2021/06/16 10:18:49;;;;;;;21.20;5.53;;;32.00;28.90;;;;;;5013389;28;20026;-46
2021/06/16 10:21:17;;;;;;;13.38;4.57;;;31.80;29.40;;;;;;4992230;28;20365;-55
2021/06/16 10:23:43;;;;;;;17.00;5.10;;;31.60;29.20;;;;;;4992144;28;20029;-48
2021/06/16 10:26:22;;;;;;;15.43;5.18;;;31.50;29.80;;;;;;4992561;28;20474;-50
2021/06/16 10:28:55;;;;;;;15.23;5.93;;;31.40;29.60;;;;;;4993729;28;20394;-54
2021/06/16 10:31:22;;;;;;;14.02;5.22;;;31.60;29.60;;;;;;4993407;28;20040;-44
2021/06/16 10:33:57;;;;;;;14.73;5.38;;;31.80;29.40;;;;;;4993302;28;20034;-47
2021/06/16 10:36:23;;;;;;;15.85;5.20;;;31.90;29.40;;;;;;5009422;28;20022;-48
2021/06/16 10:38:58;;;;;;;14.63;5.50;;;32.10;29.20;;;;;;5010495;28;20040;-44
2021/06/16 10:41:49;;;;;;;22.15;6.80;;;32.10;29.20;;;;;;5009020;28;20033;-55
2021/06/16 10:44:21;;;;;;;12.32;4.35;;;32.10;29.10;;;;;;4987283;28;20294;-52
2021/06/16 10:46:57;;;;;;;13.25;4.35;;;32.10;29.10;;;;;;4992153;28;20022;-48
2021/06/16 10:50:02;;;;;;;14.13;5.22;;;31.90;29.00;;;;;;4988910;28;20037;-47
2021/06/16 10:52:29;;;;;;;13.65;5.03;;;32.00;29.00;;;;;;4985385;28;20556;-42
2021/06/16 10:55:05;;;;;;;14.00;4.90;;;32.00;29.20;;;;;;4986135;28;20078;-47
2021/06/16 10:57:33;;;;;;;12.95;4.07;;;32.10;29.10;;;;;;4988665;28;20027;-46
2021/06/16 11:00:04;;;;;;;15.93;4.68;;;32.10;29.20;;;;;;4990792;28;20437;-45
2021/06/16 11:02:31;;;;;;;8.40;3.47;;;32.10;29.00;;;;;;4989639;28;20057;-46
2021/06/16 11:05:20;;;;;;;17.65;4.68;;;31.90;29.00;;;;;;4985586;28;20279;-43
2021/06/16 11:07:46;;;;;;;23.65;15.55;;;31.90;29.30;;;;;;4988540;28;20122;-45
2021/06/16 11:10:13;;;;;;;21.42;6.40;;;31.80;28.80;;;;;;4987320;28;20023;-54
2021/06/16 11:12:53;;;;;;;15.32;5.22;;;31.70;29.10;;;;;;4986114;28;20034;-53
2021/06/16 11:15:26;;;;;;;16.38;4.82;;;31.80;29.10;;;;;;4987171;28;20033;-56
2021/06/16 11:17:52;;;;;;;10.55;4.10;;;32.00;29.20;;;;;;4984686;28;20038;-51
2021/06/16 11:20:24;;;;;;;15.75;4.82;;;32.00;29.50;;;;;;4990670;28;20105;-49
2021/06/16 11:22:57;;;;;;;17.53;5.87;;;32.00;29.10;;;;;;4986919;28;20112;-48
2021/06/16 11:25:29;;;;;;;14.00;4.97;;;32.00;29.30;;;;;;4983581;28;20466;-45
2021/06/16 11:28:11;;;;;;;10.35;4.40;;;32.00;29.10;;;;;;4985002;28;20467;-58
2021/06/16 11:30:56;;;;;;;12.95;4.40;;;32.10;28.70;;;;;;4981016;28;20026;-52
2021/06/16 11:33:32;;;;;;;21.15;7.50;;;32.10;28.50;;;;;;4985906;28;20023;-57
2021/06/16 11:36:02;;;;;;;13.50;4.40;;;32.30;28.80;;;;;;4986330;28;20072;-49
2021/06/16 11:39:03;;;;;;;9.20;3.65;;;32.30;28.60;;;;;;4984971;28;20065;-49
2021/06/16 11:41:29;;;;;;;13.93;4.13;;;32.30;28.50;;;;;;4987226;28;20044;-46
2021/06/16 11:44:21;;;;;;;11.20;4.00;;;32.50;28.30;;;;;;4995756;28;20124;-54
2021/06/16 11:46:58;;;;;;;16.45;5.63;;;32.50;28.30;;;;;;5008170;28;20022;-56
2021/06/16 11:49:32;;;;;;;18.60;4.88;;;32.40;28.80;;;;;;5006543;28;20025;-57
2021/06/16 11:52:00;;;;;;;10.73;4.93;;;32.40;28.50;;;;;;5009470;28;20428;-44
2021/06/16 11:54:29;;;;;;;18.50;4.18;;;32.10;28.80;;;;;;5008296;28;20213;-48
2021/06/16 11:57:18;;;;;;;12.35;4.70;;;32.10;28.50;;;;;;5012662;28;20056;-50
2021/06/16 11:59:53;;;;;;;11.82;3.63;;;32.40;28.20;;;;;;4989526;28;20499;-48
2021/06/16 12:02:23;;;;;;;10.38;3.38;;;32.40;27.80;;;;;;4986276;28;20064;-55
2021/06/16 12:05:08;;;;;;;7.05;3.50;;;32.20;27.80;;;;;;5007718;28;20026;-54
2021/06/16 12:07:47;;;;;;;29.05;5.57;;;32.20;27.90;;;;;;5008242;28;20038;-43
2021/06/16 12:10:23;;;;;;;13.10;3.78;;;32.40;28.30;;;;;;4991709;28;20075;-45
2021/06/16 12:19:39;;;;;;;9.00;3.65;;;32.70;27.60;;;;;;4912628;28;20047;-45
2021/06/16 12:22:19;;;;;;;15.55;4.15;;;32.70;27.60;;;;;;4912646;29;20032;-48
2021/06/16 12:24:59;;;;;;;15.48;3.90;;;32.70;28.20;;;;;;4913760;29;20035;-44
2021/06/16 12:27:39;;;;;;;8.75;3.08;;;32.80;28.20;;;;;;4897129;29;20036;-45
2021/06/16 12:30:08;;;;;;;12.20;3.40;;;32.90;28.00;;;;;;4906293;29;20321;-52
2021/06/16 12:36:15;;;;;;;10.73;3.20;;;33.00;27.90;;;;;;4912224;29;20032;-46
2021/06/16 12:39:10;;;;;;;14.38;3.33;;;33.10;27.60;;;;;;4912600;29;20284;-44
2021/06/16 12:41:51;;;;;;;26.73;4.60;;;33.00;27.30;;;;;;4886065;29;20428;-45
2021/06/16 12:44:27;;;;;;;18.23;4.50;;;32.70;27.60;;;;;;4913993;29;20203;-53
2021/06/16 12:47:05;;;;;;;19.17;4.20;;;32.80;27.70;;;;;;4896367;29;20503;-45
2021/06/16 12:49:48;;;;;;;13.73;3.80;;;32.90;27.20;;;;;;4913394;29;20150;-42
2021/06/16 12:52:20;;;;;;;;;;;32.90;27.20;;;;;;4941263;28;20107;-45
2021/06/16 12:54:48;;;;;;;11.80;3.92;;;32.80;27.50;;;;;;4995567;28;19955;-47
2021/06/16 12:57:36;;;;;;;10.98;3.85;;;32.80;27.30;;;;;;5012898;28;20457;-44
2021/06/16 13:00:12;;;;;;;45.85;4.28;;;32.70;26.80;;;;;;4995283;28;20034;-45
2021/06/16 13:02:40;;;;;;;20.85;4.15;;;32.70;26.80;;;;;;4994334;28;20034;-45
2021/06/16 13:05:23;;;;;;;18.38;3.97;;;32.70;27.00;;;;;;4995049;28;20034;-48
2021/06/16 13:07:56;;;;;;;12.13;3.70;;;32.90;27.00;;;;;;4992355;28;20506;-45